createdAt,value
2018-07-20T00:03:27.048Z,8.87
2018-07-20T00:08:30.621Z,9.93
2018-07-20T00:13:34.184Z,7.97
2018-07-20T00:18:38.455Z,9.77
2018-07-20T00:23:42.017Z,7.30
2018-07-20T00:28:45.689Z,8.73
2018-07-20T00:33:49.178Z,12.87
2018-07-20T00:38:52.914Z,8.37
2018-07-20T00:43:56.485Z,7.60
2018-07-20T00:49:00.117Z,8.83
2018-07-20T00:54:03.777Z,8.53
2018-07-20T00:59:07.418Z,11.33
2018-07-20T01:04:11.053Z,10.93
2018-07-20T01:09:14.608Z,9.83
2018-07-20T01:14:18.982Z,8.03
2018-07-20T01:19:22.576Z,10.10
2018-07-20T01:24:26.067Z,7.70
2018-07-20T01:29:29.614Z,8.80
2018-07-20T01:34:33.594Z,8.33
2018-07-20T01:39:37.300Z,10.43
2018-07-20T01:44:40.803Z,12.70
2018-07-20T01:49:44.472Z,8.60
2018-07-20T01:54:48.049Z,8.53
2018-07-20T01:59:51.591Z,12.93
2018-07-20T02:04:55.271Z,9.33
2018-07-20T02:09:59.221Z,9.17
2018-07-20T02:15:02.969Z,10.13
2018-07-20T02:20:07.385Z,9.67
2018-07-20T02:25:12.213Z,9.07
2018-07-20T02:30:19.743Z,11.07
2018-07-20T02:35:23.500Z,8.83
2018-07-20T02:40:27.128Z,8.60
2018-07-20T02:45:31.927Z,9.43
2018-07-20T02:50:35.491Z,8.63
2018-07-20T02:55:39.097Z,8.43
2018-07-20T03:00:42.656Z,8.27
2018-07-20T03:05:46.221Z,8.73
2018-07-20T03:10:49.980Z,9.00
2018-07-20T03:15:54.216Z,10.03
2018-07-20T03:20:57.869Z,9.23
2018-07-20T03:26:01.382Z,9.20
2018-07-20T03:31:04.978Z,8.73
2018-07-20T03:36:08.456Z,8.43
2018-07-20T03:41:12.096Z,7.97
2018-07-20T03:46:15.666Z,8.07
2018-07-20T03:51:19.235Z,9.20
2018-07-20T03:56:22.916Z,13.73
2018-07-20T04:01:26.460Z,10.53
2018-07-20T04:06:29.993Z,9.37
2018-07-20T04:11:33.518Z,10.87
2018-07-20T04:16:37.409Z,11.00
2018-07-20T04:21:41.029Z,12.67
2018-07-20T04:26:44.972Z,12.47
2018-07-20T04:31:48.585Z,13.50
2018-07-20T04:36:53.375Z,11.47
2018-07-20T04:41:56.978Z,11.33
2018-07-20T04:47:00.597Z,10.43
2018-07-20T04:52:05.177Z,13.20
2018-07-20T04:57:08.989Z,13.50
2018-07-20T05:02:14.564Z,14.93
2018-07-20T05:07:18.236Z,16.97
2018-07-20T05:12:21.809Z,13.80
2018-07-20T05:17:25.486Z,13.23
2018-07-20T05:22:30.572Z,12.30
2018-07-20T05:27:34.104Z,13.87
2018-07-20T05:32:37.862Z,13.03
2018-07-20T05:37:41.269Z,8.07
2018-07-20T05:42:44.918Z,11.83
2018-07-20T05:47:48.464Z,11.60
2018-07-20T05:52:52.108Z,12.33
2018-07-20T05:57:55.690Z,10.60
2018-07-20T06:02:59.625Z,11.17
2018-07-20T06:08:03.111Z,11.90
2018-07-20T06:13:06.780Z,11.27
2018-07-20T06:18:11.426Z,10.70
2018-07-20T06:23:14.955Z,9.37
2018-07-20T06:28:18.527Z,8.17
2018-07-20T06:33:22.442Z,11.07
2018-07-20T06:38:26.984Z,9.77
2018-07-20T06:43:30.510Z,10.13
2018-07-20T06:48:34.180Z,8.10
2018-07-20T06:53:37.712Z,13.53
2018-07-20T06:58:41.253Z,10.60
2018-07-20T07:03:45.915Z,10.13
2018-07-20T07:08:49.400Z,9.87
2018-07-20T07:13:53.013Z,10.03
2018-07-20T07:18:56.819Z,9.37
2018-07-20T07:24:00.683Z,9.30
2018-07-20T07:29:04.246Z,8.80
2018-07-20T07:34:07.807Z,9.60
2018-07-20T07:39:12.587Z,10.80
2018-07-20T07:44:16.125Z,7.90
2018-07-20T07:49:19.927Z,7.40
2018-07-20T07:54:25.917Z,8.13
2018-07-20T07:59:29.463Z,6.23
2018-07-20T08:04:33.147Z,5.57
2018-07-20T08:09:36.760Z,7.93
2018-07-20T08:14:40.727Z,5.37
2018-07-20T08:19:45.140Z,6.93
2018-07-20T08:24:49.088Z,4.00
2018-07-20T08:29:52.624Z,4.77
2018-07-20T08:34:56.360Z,5.90
2018-07-20T08:39:59.921Z,5.27
2018-07-20T08:45:03.543Z,4.17
2018-07-20T08:50:07.235Z,5.90
2018-07-20T08:55:10.783Z,5.67
2018-07-20T09:00:14.922Z,4.93
2018-07-20T09:05:19.004Z,4.17
2018-07-20T09:10:22.460Z,4.37
2018-07-20T09:15:26.022Z,5.50
2018-07-20T09:20:30.071Z,6.30
2018-07-20T09:25:33.655Z,5.57
2018-07-20T09:30:37.149Z,4.37
2018-07-20T09:35:40.683Z,4.30
2018-07-20T09:40:44.216Z,5.37
2018-07-20T09:45:52.009Z,6.67
2018-07-20T09:50:55.504Z,6.23
2018-07-20T09:55:59.058Z,3.83
2018-07-20T10:01:02.538Z,4.93
2018-07-20T10:06:06.278Z,7.47
2018-07-20T10:11:09.730Z,3.93
2018-07-20T10:16:13.877Z,4.57
2018-07-20T10:21:17.986Z,3.97
2018-07-20T10:26:23.076Z,4.53
2018-07-20T10:31:27.409Z,5.40
2018-07-20T10:36:30.960Z,4.30
2018-07-20T10:41:34.474Z,5.63
2018-07-20T10:46:38.782Z,5.00
2018-07-20T10:51:42.274Z,5.60
2018-07-20T10:56:45.900Z,4.80
2018-07-20T11:01:49.375Z,6.20
2018-07-20T11:06:53.150Z,4.07
2018-07-20T11:11:56.624Z,6.77
2018-07-20T11:17:00.918Z,5.17
2018-07-20T11:22:04.407Z,4.83
2018-07-20T11:27:08.044Z,5.27
2018-07-20T11:32:12.211Z,7.00
2018-07-20T11:37:15.998Z,8.00
2018-07-20T11:42:19.977Z,5.83
2018-07-20T11:47:23.745Z,6.17
2018-07-20T11:52:27.183Z,5.23
2018-07-20T11:57:30.779Z,4.40
2018-07-20T12:02:34.354Z,4.83
2018-07-20T12:07:37.885Z,4.90
2018-07-20T12:12:41.373Z,4.73
2018-07-20T12:17:44.864Z,5.80
2018-07-20T12:22:48.375Z,5.60
2018-07-20T12:27:51.928Z,4.63
2018-07-20T12:32:55.867Z,4.93
2018-07-20T12:38:00.119Z,5.77
2018-07-20T12:43:03.773Z,5.97
2018-07-20T12:48:08.046Z,5.37
2018-07-20T12:53:11.747Z,4.87
2018-07-20T12:58:15.292Z,4.57
2018-07-20T13:03:18.850Z,5.47
2018-07-20T13:08:22.577Z,4.90
2018-07-20T13:13:27.705Z,5.30
2018-07-20T13:18:31.253Z,4.87
2018-07-20T13:23:37.555Z,5.13
2018-07-20T13:28:42.270Z,5.03
2018-07-20T13:33:45.819Z,4.93
2018-07-20T13:38:49.581Z,5.20
2018-07-20T13:43:53.056Z,5.20
2018-07-20T13:48:58.721Z,6.70
2018-07-20T13:54:02.177Z,5.13
2018-07-20T13:59:05.947Z,4.63
2018-07-20T14:04:10.579Z,5.40
2018-07-20T14:09:14.220Z,4.77
2018-07-20T14:14:17.705Z,5.10
2018-07-20T14:19:21.217Z,7.17
2018-07-20T14:24:24.719Z,7.47
2018-07-20T14:29:28.301Z,5.53
2018-07-20T14:34:31.902Z,5.23
2018-07-20T14:39:35.438Z,5.37
2018-07-20T14:44:39.870Z,3.97
2018-07-20T14:49:43.526Z,6.27
2018-07-20T14:54:47.148Z,5.10
2018-07-20T14:59:51.812Z,4.70
2018-07-20T15:04:55.337Z,6.80
2018-07-20T15:09:59.038Z,5.60
2018-07-20T15:15:03.393Z,5.83
2018-07-20T15:20:07.821Z,5.20
2018-07-20T15:25:11.288Z,5.47
2018-07-20T15:30:18.345Z,5.43
2018-07-20T15:35:22.165Z,7.77
2018-07-20T15:40:25.748Z,4.77
2018-07-20T15:45:30.049Z,5.37
2018-07-20T15:50:33.590Z,6.10
2018-07-20T15:55:37.052Z,4.97
2018-07-20T16:00:40.663Z,7.10
2018-07-20T16:05:44.269Z,6.13
2018-07-20T16:10:48.041Z,5.97
2018-07-20T16:15:51.561Z,5.43
2018-07-20T16:20:56.076Z,5.13
2018-07-20T16:25:59.626Z,5.57
2018-07-20T16:31:03.263Z,4.67
2018-07-20T16:36:06.828Z,5.43
2018-07-20T16:41:10.437Z,5.73
2018-07-20T16:46:14.298Z,4.63
2018-07-20T16:51:18.970Z,4.30
2018-07-20T16:56:22.542Z,7.20
2018-07-20T17:01:26.072Z,5.23
2018-07-20T17:06:29.580Z,5.70
2018-07-20T17:11:33.333Z,6.00
2018-07-20T17:16:37.337Z,4.90
2018-07-20T17:21:40.901Z,5.03
2018-07-20T17:26:44.357Z,5.13
2018-07-20T17:31:47.889Z,7.20
2018-07-20T17:36:51.445Z,4.80
2018-07-20T17:41:54.963Z,10.10
2018-07-20T17:46:58.429Z,4.30
2018-07-20T17:52:01.990Z,4.53
2018-07-20T17:57:05.491Z,5.63
2018-07-20T18:02:10.671Z,4.93
2018-07-20T18:07:14.490Z,5.70
2018-07-20T18:12:18.030Z,4.63
2018-07-20T18:17:21.523Z,4.43
2018-07-20T18:22:25.064Z,5.50
2018-07-20T18:27:28.643Z,5.47
2018-07-20T18:32:32.432Z,4.40
2018-07-20T18:37:36.093Z,5.50
2018-07-20T18:42:39.604Z,6.53
2018-07-20T18:47:43.199Z,6.03
2018-07-20T18:52:46.736Z,5.80
2018-07-20T18:57:50.257Z,7.03
2018-07-20T19:02:53.797Z,6.70
2018-07-20T19:07:57.379Z,8.87
2018-07-20T19:13:00.940Z,7.10
2018-07-20T19:18:04.484Z,6.27
2018-07-20T19:23:08.261Z,6.57
2018-07-20T19:28:11.829Z,6.37
2018-07-20T19:33:15.408Z,6.53
2018-07-20T19:38:19.734Z,8.33
2018-07-20T19:43:23.393Z,7.47
2018-07-20T19:48:26.956Z,6.87
2018-07-20T19:53:32.213Z,8.37
2018-07-20T19:58:35.734Z,6.63
2018-07-20T20:03:39.456Z,7.60
2018-07-20T20:08:44.602Z,5.80
2018-07-20T20:13:48.254Z,6.87
2018-07-20T20:18:52.797Z,6.37
2018-07-20T20:23:57.251Z,8.70
2018-07-20T20:29:00.863Z,6.20
2018-07-20T20:34:04.418Z,7.43
2018-07-20T20:39:11.489Z,7.03
2018-07-20T20:44:15.304Z,7.17
2018-07-20T20:49:18.949Z,7.13
2018-07-20T20:54:22.491Z,6.97
2018-07-20T20:59:26.091Z,6.73
2018-07-20T21:04:29.864Z,6.60
2018-07-20T21:09:33.425Z,10.00
2018-07-20T21:14:38.338Z,9.53
2018-07-20T21:19:41.906Z,8.00
2018-07-20T21:24:45.504Z,7.50
2018-07-20T21:29:49.113Z,10.30
2018-07-20T21:34:53.317Z,8.13
2018-07-20T21:39:56.803Z,9.10
2018-07-20T21:45:00.368Z,10.50
2018-07-20T21:50:03.945Z,10.03
2018-07-20T21:55:08.980Z,9.20
2018-07-20T22:00:17.469Z,16.07
2018-07-20T22:05:21.068Z,9.43
2018-07-20T22:10:25.029Z,9.97
2018-07-20T22:15:29.305Z,11.93
2018-07-20T22:20:32.868Z,8.67
2018-07-20T22:25:36.418Z,8.20
2018-07-20T22:30:39.974Z,8.53
2018-07-20T22:35:43.548Z,8.77
2018-07-20T22:40:47.099Z,7.27
2018-07-20T22:45:50.653Z,9.70
2018-07-20T22:50:54.212Z,10.33
2018-07-20T22:55:57.749Z,7.77
2018-07-20T23:01:01.698Z,8.43
2018-07-20T23:06:05.281Z,7.93
2018-07-20T23:11:08.842Z,13.37
2018-07-20T23:16:13.738Z,10.37
2018-07-20T23:21:17.289Z,8.03
2018-07-20T23:26:21.860Z,11.30
2018-07-20T23:31:25.553Z,9.17
2018-07-20T23:36:29.112Z,11.70
2018-07-20T23:41:32.602Z,6.57
2018-07-20T23:46:36.197Z,7.67
2018-07-20T23:51:40.160Z,8.07
2018-07-20T23:56:43.678Z,6.03
